Time;durP1;ratioP1;P1;durP2;ratioP2;P2;SDS_P1;SDS_P2;PMS_P1;PMS_P2;Temp;Humidity;BMP_temperature;BMP_pressure;BME280_temperature;BME280_humidity;BME280_pressure;Samples;Min_cycle;Max_cycle;Signal;HPM_P1;HPM_P2
2023/05/02 00:01:33;;;;;;;2.78;2.28;;;9.70;99.90;;;;;;5013882;28;20671;-78
2023/05/02 00:04:00;;;;;;;0.50;0.40;;;9.70;99.90;;;;;;5013613;28;20659;-79
2023/05/02 00:06:30;;;;;;;1.02;1.02;;;9.60;99.90;;;;;;5013758;28;20200;-79
2023/05/02 00:08:56;;;;;;;0.50;0.40;;;9.60;99.90;;;;;;5013186;28;20234;-79
2023/05/02 00:11:23;;;;;;;0.50;0.40;;;9.60;99.90;;;;;;5013378;28;20220;-78
2023/05/02 00:13:50;;;;;;;0.50;0.40;;;9.60;99.90;;;;;;5013589;28;20192;-79
2023/05/02 00:16:17;;;;;;;0.50;0.40;;;9.60;99.90;;;;;;5013440;28;20275;-79
2023/05/02 00:18:44;;;;;;;0.50;0.40;;;9.80;99.90;;;;;;5013715;28;20192;-78
2023/05/02 00:21:11;;;;;;;0.60;0.52;;;9.80;99.90;;;;;;5013217;28;20592;-81
2023/05/02 00:23:40;;;;;;;0.50;0.40;;;9.90;99.90;;;;;;5013358;28;20192;-78
2023/05/02 00:26:09;;;;;;;3.25;2.35;;;10.10;99.90;;;;;;5013363;28;20279;-79
2023/05/02 00:28:36;;;;;;;1.80;1.58;;;10.10;99.90;;;;;;5013077;28;20200;-79
2023/05/02 00:31:04;;;;;;;0.50;0.40;;;10.20;99.90;;;;;;5013164;28;20303;-80
2023/05/02 00:33:30;;;;;;;1.35;1.23;;;10.30;99.90;;;;;;5013364;28;20200;-78
2023/05/02 00:35:57;;;;;;;1.42;1.33;;;10.40;99.90;;;;;;5013807;28;20198;-79
2023/05/02 00:38:24;;;;;;;3.53;1.40;;;10.40;99.90;;;;;;5013583;28;20202;-78
2023/05/02 00:40:52;;;;;;;0.50;0.40;;;10.50;99.90;;;;;;5013385;28;20211;-79
2023/05/02 00:43:20;;;;;;;0.50;0.40;;;10.50;99.90;;;;;;5013482;28;20271;-79
2023/05/02 00:45:47;;;;;;;0.50;0.40;;;10.50;99.90;;;;;;5012673;28;20200;-79
2023/05/02 00:48:14;;;;;;;1.70;1.58;;;10.50;99.90;;;;;;5013223;28;20279;-79
2023/05/02 00:50:43;;;;;;;3.22;1.20;;;10.50;99.90;;;;;;5012719;28;20206;-79
2023/05/02 00:53:10;;;;;;;1.65;0.95;;;10.50;99.90;;;;;;5012789;28;20311;-79
2023/05/02 00:55:37;;;;;;;0.50;0.40;;;10.40;99.90;;;;;;5012786;28;20198;-79
2023/05/02 00:58:09;;;;;;;0.50;0.40;;;10.30;99.90;;;;;;5012740;28;20634;-79
2023/05/02 01:00:55;;;;;;;1.02;1.02;;;10.10;99.90;;;;;;5012437;28;20290;-79
2023/05/02 01:03:32;;;;;;;0.60;0.40;;;10.00;99.90;;;;;;5012706;28;20192;-79
2023/05/02 01:06:10;;;;;;;0.75;0.75;;;9.90;99.90;;;;;;5012650;28;20202;-79
2023/05/02 01:08:43;;;;;;;0.60;0.40;;;9.90;99.90;;;;;;5012511;28;20227;-80
2023/05/02 01:11:15;;;;;;;0.50;0.40;;;9.80;99.90;;;;;;5012131;28;20218;-79
2023/05/02 01:13:45;;;;;;;0.50;0.40;;;9.70;99.90;;;;;;5012484;28;20192;-79
2023/05/02 01:16:14;;;;;;;2.65;2.45;;;9.80;99.90;;;;;;5012484;28;20196;-79
2023/05/02 01:18:43;;;;;;;3.83;2.88;;;9.80;99.90;;;;;;5013888;28;20270;-79
2023/05/02 01:21:12;;;;;;;0.50;0.40;;;9.90;99.90;;;;;;5015993;28;20749;-79
2023/05/02 01:23:45;;;;;;;2.35;1.38;;;10.00;99.90;;;;;;5016026;28;20204;-78
2023/05/02 01:26:23;;;;;;;3.53;2.88;;;10.10;99.90;;;;;;5016721;28;20192;-80
2023/05/02 01:29:09;;;;;;;3.53;3.22;;;10.10;99.90;;;;;;5016096;28;20242;-79
2023/05/02 01:31:39;;;;;;;4.63;4.18;;;10.20;99.90;;;;;;5016032;28;20701;-79
2023/05/02 01:34:09;;;;;;;0.68;0.65;;;10.30;99.90;;;;;;5016380;28;20258;-79
2023/05/02 01:36:41;;;;;;;1.42;1.33;;;10.30;99.90;;;;;;5016309;28;20207;-79
2023/05/02 01:39:10;;;;;;;0.50;0.40;;;10.30;99.90;;;;;;5016195;28;20584;-78
2023/05/02 01:41:38;;;;;;;0.80;0.80;;;10.30;99.90;;;;;;5015699;28;20294;-78
2023/05/02 01:44:07;;;;;;;2.45;2.25;;;10.30;99.90;;;;;;5016056;28;20202;-78
2023/05/02 01:46:40;;;;;;;2.17;1.13;;;10.30;99.90;;;;;;5015952;28;20198;-79
2023/05/02 01:49:08;;;;;;;0.50;0.40;;;10.40;99.90;;;;;;5016140;28;20204;-76
2023/05/02 01:51:40;;;;;;;0.88;0.88;;;10.40;99.90;;;;;;5016313;28;20212;-79
2023/05/02 01:54:08;;;;;;;0.50;0.40;;;10.40;99.90;;;;;;5016730;28;20191;-79
2023/05/02 01:56:38;;;;;;;0.50;0.50;;;10.50;99.90;;;;;;5017655;28;20196;-79
2023/05/02 01:59:07;;;;;;;4.00;3.83;;;10.50;99.90;;;;;;5020415;28;20203;-79
2023/05/02 02:01:37;;;;;;;0.70;0.70;;;10.50;99.90;;;;;;5019473;28;20212;-79
2023/05/02 02:04:06;;;;;;;3.97;3.63;;;10.50;99.90;;;;;;5021222;28;20202;-79
2023/05/02 02:06:33;;;;;;;0.50;0.40;;;10.50;99.90;;;;;;5018652;28;20196;-79
2023/05/02 02:09:00;;;;;;;0.73;0.73;;;10.60;99.90;;;;;;5019973;28;20192;-79
2023/05/02 02:11:32;;;;;;;0.50;0.40;;;10.60;99.90;;;;;;5017532;28;20228;-79
2023/05/02 02:14:06;;;;;;;1.15;1.15;;;10.60;99.90;;;;;;5009827;28;20193;-79
2023/05/02 02:16:34;;;;;;;0.50;0.40;;;10.60;99.90;;;;;;5017679;28;20293;-79
2023/05/02 02:19:07;;;;;;;3.00;2.80;;;10.60;99.90;;;;;;5017277;28;20196;-79
2023/05/02 02:21:35;;;;;;;0.77;0.77;;;10.70;99.90;;;;;;5017363;28;20220;-77
2023/05/02 02:24:03;;;;;;;0.50;0.40;;;10.70;99.90;;;;;;5015952;28;20196;-79
2023/05/02 02:26:30;;;;;;;0.60;0.60;;;10.70;99.90;;;;;;5015969;28;20196;-79
2023/05/02 02:28:57;;;;;;;0.60;0.55;;;10.70;99.90;;;;;;5015799;28;20209;-79
2023/05/02 02:31:24;;;;;;;4.40;3.42;;;10.70;99.90;;;;;;5015316;28;20212;-79
2023/05/02 02:33:51;;;;;;;0.50;0.40;;;10.80;99.90;;;;;;5015647;28;20307;-78
2023/05/02 02:36:25;;;;;;;2.08;1.98;;;10.70;99.90;;;;;;5015837;28;20279;-79
2023/05/02 02:39:01;;;;;;;6.55;3.85;;;10.80;99.90;;;;;;5015676;28;20188;-79
2023/05/02 02:41:33;;;;;;;6.38;5.35;;;10.80;99.90;;;;;;5015422;28;20238;-79
2023/05/02 02:44:05;;;;;;;0.50;0.38;;;10.80;99.90;;;;;;5016033;28;20188;-79
2023/05/02 02:46:45;;;;;;;1.48;1.38;;;10.80;99.90;;;;;;5015298;28;20203;-79
2023/05/02 02:49:26;;;;;;;0.50;0.50;;;10.80;99.90;;;;;;5015300;28;20286;-78
2023/05/02 02:52:02;;;;;;;0.50;0.40;;;10.80;99.90;;;;;;5015641;28;20274;-79
2023/05/02 02:54:34;;;;;;;0.50;0.50;;;10.80;99.90;;;;;;5015430;28;20194;-79
2023/05/02 02:57:07;;;;;;;1.15;1.05;;;10.70;99.90;;;;;;5007598;28;20192;-79
2023/05/02 02:59:40;;;;;;;0.50;0.50;;;10.80;99.90;;;;;;5014691;28;20198;-77
2023/05/02 03:02:08;;;;;;;0.50;0.40;;;10.80;99.90;;;;;;5014947;28;20266;-79
2023/05/02 03:04:37;;;;;;;0.50;0.40;;;10.80;99.90;;;;;;5014602;28;20202;-78
2023/05/02 03:07:06;;;;;;;2.00;1.90;;;10.80;99.90;;;;;;5014474;28;20563;-79
2023/05/02 03:09:41;;;;;;;1.30;1.20;;;10.80;99.90;;;;;;5014355;28;20200;-79
2023/05/02 03:12:08;;;;;;;0.90;0.88;;;10.80;99.90;;;;;;5014708;28;20228;-80
2023/05/02 03:14:35;;;;;;;0.77;0.77;;;10.80;99.90;;;;;;5014641;28;20196;-78
2023/05/02 03:17:02;;;;;;;1.60;0.80;;;10.90;99.90;;;;;;5014124;28;20636;-79
2023/05/02 03:19:29;;;;;;;12.38;1.15;;;10.90;99.90;;;;;;5014197;28;20685;-78
2023/05/02 03:21:56;;;;;;;0.50;0.40;;;10.90;99.90;;;;;;5013996;28;20728;-79
2023/05/02 03:24:26;;;;;;;0.50;0.40;;;10.90;99.90;;;;;;5014247;28;20254;-79
2023/05/02 03:26:55;;;;;;;0.50;0.40;;;10.90;99.90;;;;;;5013767;28;20707;-79
2023/05/02 03:29:22;;;;;;;0.60;0.50;;;10.80;99.90;;;;;;5013885;28;20196;-79
2023/05/02 03:31:49;;;;;;;0.50;0.50;;;10.80;99.90;;;;;;5013775;28;20870;-79
2023/05/02 03:34:16;;;;;;;0.50;0.40;;;10.90;99.90;;;;;;5013223;28;20192;-78
2023/05/02 03:36:43;;;;;;;0.70;0.65;;;10.90;99.90;;;;;;5013389;28;20287;-77
2023/05/02 03:39:10;;;;;;;0.50;0.40;;;10.90;99.90;;;;;;5012891;28;20674;-78
2023/05/02 03:41:38;;;;;;;3.80;3.45;;;10.90;99.90;;;;;;5012660;28;20215;-78
2023/05/02 03:44:05;;;;;;;0.50;0.40;;;10.90;99.90;;;;;;5013797;28;20780;-78
2023/05/02 03:46:32;;;;;;;0.50;0.40;;;10.90;99.90;;;;;;5014336;28;20235;-79
2023/05/02 03:48:59;;;;;;;4.10;2.25;;;10.90;99.90;;;;;;5014933;28;20626;-79
2023/05/02 03:51:26;;;;;;;0.50;0.40;;;10.90;99.90;;;;;;5015061;28;20302;-78
2023/05/02 03:53:53;;;;;;;0.60;0.60;;;10.90;99.90;;;;;;5014418;28;20227;-79
2023/05/02 03:56:20;;;;;;;0.50;0.40;;;10.90;99.90;;;;;;5013610;28;20200;-79
2023/05/02 03:58:49;;;;;;;0.50;0.40;;;10.90;99.90;;;;;;5014329;28;20644;-77
2023/05/02 04:01:16;;;;;;;0.50;0.50;;;11.00;99.90;;;;;;5014449;28;20725;-79
2023/05/02 04:03:43;;;;;;;7.82;3.35;;;11.00;99.90;;;;;;5014729;28;20215;-80
2023/05/02 04:06:11;;;;;;;1.67;1.58;;;11.00;99.90;;;;;;5014691;28;20223;-78
2023/05/02 04:08:38;;;;;;;0.90;0.68;;;10.90;99.90;;;;;;5014077;28;20235;-79
2023/05/02 04:11:05;;;;;;;0.60;0.50;;;11.00;99.90;;;;;;5014250;28;20280;-81
2023/05/02 04:13:32;;;;;;;0.50;0.50;;;11.00;99.90;;;;;;5014513;28;20212;-80
2023/05/02 04:16:00;;;;;;;1.15;1.02;;;10.90;99.90;;;;;;5013959;28;20282;-79
2023/05/02 04:18:27;;;;;;;0.50;0.40;;;10.90;99.90;;;;;;5014301;28;20286;-80
2023/05/02 04:20:53;;;;;;;0.50;0.40;;;10.90;99.90;;;;;;5011268;28;20311;-80
2023/05/02 04:23:20;;;;;;;0.50;0.40;;;10.90;99.90;;;;;;5014209;28;20648;-82
2023/05/02 04:25:53;;;;;;;0.50;0.40;;;11.00;99.90;;;;;;5013465;28;20457;-80
2023/05/02 04:28:21;;;;;;;0.50;0.40;;;10.90;99.90;;;;;;5013661;28;20271;-80
2023/05/02 04:30:48;;;;;;;1.30;1.20;;;10.90;99.90;;;;;;5014018;28;20254;-79
2023/05/02 04:33:17;;;;;;;0.82;0.82;;;10.90;99.90;;;;;;5014064;28;20212;-80
2023/05/02 04:35:44;;;;;;;0.95;0.95;;;11.00;99.90;;;;;;5014659;28;20309;-78
2023/05/02 04:38:10;;;;;;;10.32;3.47;;;11.00;99.90;;;;;;5014291;28;20196;-81
2023/05/02 04:40:37;;;;;;;1.05;0.95;;;10.90;99.90;;;;;;5014346;28;20283;-80
2023/05/02 04:43:04;;;;;;;0.57;0.57;;;10.90;99.90;;;;;;5015962;28;20198;-82
2023/05/02 04:45:31;;;;;;;1.67;1.58;;;10.90;99.90;;;;;;5015639;28;20199;-83
2023/05/02 04:47:58;;;;;;;1.35;1.25;;;10.90;99.90;;;;;;5015657;28;20282;-82
2023/05/02 04:50:28;;;;;;;0.50;0.40;;;11.00;99.90;;;;;;5017343;28;20223;-84
2023/05/02 04:52:55;;;;;;;0.90;0.82;;;11.00;99.90;;;;;;5017376;28;20565;-83
2023/05/02 04:55:22;;;;;;;1.05;0.95;;;11.10;99.90;;;;;;5016268;28;20200;-83
2023/05/02 04:57:48;;;;;;;1.08;1.08;;;11.20;99.90;;;;;;5014723;28;20210;-80
2023/05/02 05:00:15;;;;;;;0.50;0.40;;;11.10;99.90;;;;;;5018496;28;20715;-81
2023/05/02 05:02:43;;;;;;;1.13;1.13;;;11.10;99.90;;;;;;5015312;28;20601;-81
2023/05/02 05:05:10;;;;;;;0.50;0.40;;;11.00;99.90;;;;;;5015781;28;20195;-83
2023/05/02 05:07:38;;;;;;;0.88;0.80;;;10.90;99.90;;;;;;5015938;28;20286;-80
2023/05/02 05:10:06;;;;;;;5.85;2.60;;;10.90;99.90;;;;;;5007131;28;20203;-81
2023/05/02 05:12:33;;;;;;;0.50;0.40;;;10.80;99.90;;;;;;5015051;28;20306;-81
2023/05/02 05:15:00;;;;;;;0.50;0.40;;;10.70;99.90;;;;;;5015375;28;20200;-81
2023/05/02 05:17:27;;;;;;;0.52;0.52;;;10.60;99.90;;;;;;5015310;28;20682;-80
2023/05/02 05:19:54;;;;;;;1.20;1.10;;;10.70;99.90;;;;;;5014878;28;20200;-81
2023/05/02 05:22:20;;;;;;;0.63;0.63;;;10.60;99.90;;;;;;5015409;28;20230;-80
2023/05/02 05:24:53;;;;;;;1.25;0.77;;;10.50;99.90;;;;;;5014806;28;20280;-80
2023/05/02 05:27:20;;;;;;;0.73;0.73;;;10.50;99.90;;;;;;5014883;28;20215;-80
2023/05/02 05:29:47;;;;;;;1.77;1.33;;;10.50;99.90;;;;;;5014219;28;20291;-81
2023/05/02 05:32:14;;;;;;;4.13;1.27;;;10.50;99.90;;;;;;5014570;28;20216;-81
2023/05/02 05:34:41;;;;;;;1.60;1.50;;;10.50;99.90;;;;;;5017284;28;20303;-79
2023/05/02 05:37:07;;;;;;;0.50;0.40;;;10.40;99.90;;;;;;5014864;28;20439;-81
2023/05/02 05:39:34;;;;;;;0.50;0.40;;;10.40;99.90;;;;;;5014772;28;20279;-80
2023/05/02 05:42:02;;;;;;;1.35;0.77;;;10.30;99.90;;;;;;5014596;28;20243;-80
2023/05/02 05:44:30;;;;;;;0.70;0.70;;;10.30;99.90;;;;;;5015066;28;20644;-81
2023/05/02 05:46:57;;;;;;;0.50;0.40;;;10.30;99.90;;;;;;5014511;28;20200;-81
2023/05/02 05:49:24;;;;;;;0.52;0.52;;;10.30;99.90;;;;;;5013949;28;20284;-82
2023/05/02 05:51:51;;;;;;;0.50;0.50;;;10.30;99.90;;;;;;5013774;28;20216;-81
2023/05/02 05:54:18;;;;;;;1.05;1.05;;;10.30;99.90;;;;;;5013782;28;20619;-81
2023/05/02 05:56:45;;;;;;;0.50;0.40;;;10.40;99.90;;;;;;5017305;28;20196;-78
2023/05/02 05:59:13;;;;;;;0.50;0.40;;;10.40;99.90;;;;;;5020988;28;20212;-81
2023/05/02 06:01:40;;;;;;;0.50;0.40;;;10.40;99.90;;;;;;5021765;28;20655;-83
2023/05/02 06:04:07;;;;;;;0.50;0.40;;;10.40;99.90;;;;;;5025876;28;20199;-82
2023/05/02 06:06:34;;;;;;;0.88;0.88;;;10.40;99.90;;;;;;5024846;28;20204;-80
2023/05/02 06:09:01;;;;;;;0.50;0.40;;;10.40;99.90;;;;;;5031072;28;20307;-83
2023/05/02 06:11:28;;;;;;;0.50;0.40;;;10.40;99.90;;;;;;5033072;28;20243;-82
2023/05/02 06:13:55;;;;;;;2.65;1.08;;;10.50;99.90;;;;;;5029731;28;20279;-84
2023/05/02 06:16:23;;;;;;;0.50;0.40;;;10.60;99.90;;;;;;5030632;28;20279;-81
2023/05/02 06:18:52;;;;;;;0.50;0.40;;;10.60;99.90;;;;;;5030169;28;20196;-78
2023/05/02 06:21:19;;;;;;;0.50;0.40;;;10.70;99.90;;;;;;5031437;28;20226;-80
2023/05/02 06:23:45;;;;;;;0.50;0.40;;;10.80;99.90;;;;;;5034149;28;20287;-82
2023/05/02 06:26:12;;;;;;;0.50;0.40;;;10.90;99.90;;;;;;5034395;28;20188;-84
2023/05/02 06:28:39;;;;;;;2.30;0.82;;;11.00;99.90;;;;;;5029627;28;20236;-81
2023/05/02 06:31:06;;;;;;;0.50;0.40;;;11.00;99.90;;;;;;5029835;28;20275;-82
2023/05/02 06:33:35;;;;;;;1.05;1.05;;;11.10;99.90;;;;;;5027845;28;20230;-82
2023/05/02 06:36:02;;;;;;;0.50;0.40;;;11.20;99.90;;;;;;5025047;28;20286;-83
2023/05/02 06:38:29;;;;;;;1.13;1.07;;;11.30;99.90;;;;;;5018219;28;20744;-81
2023/05/02 06:40:56;;;;;;;0.50;0.40;;;11.40;99.90;;;;;;5018841;28;20494;-83
2023/05/02 06:43:23;;;;;;;0.50;0.40;;;11.50;99.90;;;;;;5019191;28;20530;-82
2023/05/02 06:45:53;;;;;;;0.50;0.40;;;11.50;99.90;;;;;;5018292;28;20215;-82
2023/05/02 06:48:20;;;;;;;0.50;0.40;;;11.60;99.90;;;;;;5020148;28;20431;-83
2023/05/02 06:50:48;;;;;;;0.50;0.40;;;11.60;99.90;;;;;;5016920;28;20204;-82
2023/05/02 06:53:15;;;;;;;0.50;0.40;;;11.70;99.90;;;;;;5017497;28;20306;-82
2023/05/02 06:55:42;;;;;;;0.50;0.40;;;11.60;99.90;;;;;;5017004;28;20200;-77
2023/05/02 06:58:09;;;;;;;0.50;0.40;;;11.60;99.90;;;;;;5016389;28;20215;-82
2023/05/02 07:00:36;;;;;;;0.50;0.40;;;11.70;99.90;;;;;;5015267;28;20200;-82
2023/05/02 07:03:02;;;;;;;0.50;0.40;;;11.60;99.90;;;;;;5015768;28;20282;-82
2023/05/02 07:05:30;;;;;;;0.50;0.40;;;11.60;99.90;;;;;;5017392;28;20220;-81
2023/05/02 07:07:58;;;;;;;0.50;0.40;;;11.50;99.90;;;;;;5018007;28;20606;-81
2023/05/02 07:10:25;;;;;;;0.50;0.40;;;11.40;99.90;;;;;;5015450;28;20196;-81
2023/05/02 07:12:52;;;;;;;0.50;0.40;;;11.30;99.90;;;;;;5023528;28;20211;-82
2023/05/02 07:15:19;;;;;;;1.02;0.50;;;11.30;99.90;;;;;;5015524;28;20514;-80
2023/05/02 07:17:48;;;;;;;0.50;0.40;;;11.00;99.90;;;;;;5015462;28;20202;-78
2023/05/02 07:20:15;;;;;;;0.50;0.40;;;10.90;99.90;;;;;;5015062;28;20279;-80
2023/05/02 07:22:42;;;;;;;0.50;0.40;;;10.80;99.90;;;;;;5015357;28;20251;-81
2023/05/02 07:25:10;;;;;;;0.50;0.40;;;10.80;99.90;;;;;;5015868;28;20287;-80
2023/05/02 07:27:37;;;;;;;0.50;0.40;;;10.80;99.90;;;;;;5016016;28;20208;-81
2023/05/02 07:30:05;;;;;;;1.40;1.30;;;10.70;99.90;;;;;;5015185;28;20686;-80
2023/05/02 07:32:32;;;;;;;0.50;0.40;;;10.70;99.90;;;;;;5015647;28;20252;-81
2023/05/02 07:34:59;;;;;;;0.50;0.40;;;10.70;99.90;;;;;;5014935;28;20226;-81
2023/05/02 07:37:26;;;;;;;0.70;0.70;;;10.80;99.90;;;;;;5015104;28;20447;-81
2023/05/02 07:39:53;;;;;;;0.70;0.65;;;10.90;99.90;;;;;;5015425;28;20204;-79
2023/05/02 07:42:21;;;;;;;0.50;0.40;;;10.90;99.90;;;;;;5015211;28;20212;-81
2023/05/02 07:44:48;;;;;;;0.50;0.40;;;10.90;99.90;;;;;;5015700;28;20223;-80
2023/05/02 07:47:14;;;;;;;0.50;0.40;;;10.90;99.90;;;;;;5014769;28;20188;-80
2023/05/02 07:49:41;;;;;;;0.50;0.40;;;10.90;99.90;;;;;;5014993;28;20203;-81
2023/05/02 07:52:08;;;;;;;0.50;0.40;;;11.00;99.90;;;;;;5015313;28;20653;-81
2023/05/02 07:54:35;;;;;;;0.50;0.50;;;11.10;99.90;;;;;;5015667;28;20288;-81
2023/05/02 07:57:04;;;;;;;0.90;0.70;;;11.10;99.90;;;;;;5014285;28;20215;-81
2023/05/02 07:59:32;;;;;;;0.50;0.40;;;11.00;99.90;;;;;;5014786;28;20207;-80
2023/05/02 08:01:59;;;;;;;0.50;0.40;;;10.90;99.90;;;;;;5014490;28;20230;-81
2023/05/02 08:04:26;;;;;;;0.50;0.40;;;10.90;99.90;;;;;;5014792;28;20287;-81
2023/05/02 08:06:52;;;;;;;0.50;0.40;;;10.80;99.90;;;;;;5014455;28;20200;-82
2023/05/02 08:09:19;;;;;;;0.50;0.40;;;10.90;99.90;;;;;;5014267;28;20194;-81
2023/05/02 08:11:46;;;;;;;0.50;0.40;;;10.70;99.90;;;;;;5013933;28;20262;-81
2023/05/02 08:14:13;;;;;;;2.25;2.15;;;10.70;99.90;;;;;;5013773;28;20204;-80
2023/05/02 08:16:42;;;;;;;0.50;0.40;;;10.80;99.90;;;;;;5016523;28;20196;-81
2023/05/02 08:19:09;;;;;;;0.50;0.40;;;10.90;99.90;;;;;;5014048;28;20663;-78
2023/05/02 08:21:36;;;;;;;0.50;0.40;;;10.80;99.90;;;;;;5013990;28;20219;-75
2023/05/02 08:24:03;;;;;;;0.50;0.40;;;10.90;99.90;;;;;;5013968;28;20566;-78
2023/05/02 08:26:30;;;;;;;0.50;0.40;;;11.00;99.90;;;;;;5014444;28;20199;-82
2023/05/02 08:28:56;;;;;;;0.50;0.40;;;10.90;99.90;;;;;;5013176;28;20632;-80
2023/05/02 08:31:23;;;;;;;0.85;0.85;;;10.90;99.90;;;;;;5013718;28;20211;-80
2023/05/02 08:33:52;;;;;;;0.50;0.40;;;10.90;99.90;;;;;;5013665;28;20455;-82
2023/05/02 08:36:19;;;;;;;0.50;0.40;;;10.90;99.90;;;;;;5005583;28;20198;-80
2023/05/02 08:38:46;;;;;;;2.58;2.47;;;11.00;99.90;;;;;;5013894;28;20319;-80
2023/05/02 08:41:15;;;;;;;0.88;0.55;;;11.00;99.90;;;;;;5013172;28;20302;-80
2023/05/02 08:43:42;;;;;;;0.50;0.40;;;11.00;99.90;;;;;;5013452;28;20196;-78
2023/05/02 08:46:10;;;;;;;0.50;0.40;;;11.10;99.90;;;;;;5013681;28;20234;-80
2023/05/02 08:48:40;;;;;;;0.50;0.40;;;11.00;99.90;;;;;;5013179;28;20199;-78
2023/05/02 08:51:10;;;;;;;0.80;0.63;;;10.90;99.90;;;;;;5013143;28;20220;-80
2023/05/02 08:53:38;;;;;;;0.50;0.50;;;10.90;99.90;;;;;;5013680;28;20200;-82
2023/05/02 08:56:06;;;;;;;0.50;0.40;;;10.80;99.90;;;;;;5013401;28;20191;-81
2023/05/02 08:58:33;;;;;;;0.50;0.40;;;10.90;99.90;;;;;;5014208;28;20202;-80
2023/05/02 09:01:03;;;;;;;0.50;0.40;;;11.20;99.90;;;;;;5013684;28;20216;-81
2023/05/02 09:03:31;;;;;;;0.50;0.40;;;11.40;99.90;;;;;;5013941;28;20227;-81
2023/05/02 09:06:11;;;;;;;0.50;0.40;;;11.60;99.90;;;;;;5013297;28;20435;-81
2023/05/02 09:08:39;;;;;;;0.50;0.47;;;11.80;99.90;;;;;;5013775;28;20295;-81
2023/05/02 09:11:07;;;;;;;0.50;0.40;;;11.90;99.90;;;;;;5013247;28;20465;-80
2023/05/02 09:13:36;;;;;;;0.50;0.40;;;12.10;99.90;;;;;;5013724;28;20207;-80
2023/05/02 09:16:04;;;;;;;0.50;0.50;;;12.40;99.90;;;;;;5013250;28;20972;-81
2023/05/02 09:18:32;;;;;;;0.53;0.50;;;12.70;99.90;;;;;;5013827;28;20453;-81
2023/05/02 09:21:00;;;;;;;1.43;1.23;;;12.50;99.90;;;;;;5013214;28;20565;-81
2023/05/02 09:23:36;;;;;;;0.50;0.40;;;12.40;99.90;;;;;;5014020;28;20445;-81
2023/05/02 09:26:11;;;;;;;0.50;0.40;;;12.10;99.90;;;;;;5013747;28;20525;-81
2023/05/02 09:28:40;;;;;;;0.50;0.40;;;12.10;99.90;;;;;;5014073;28;20794;-80
2023/05/02 09:31:09;;;;;;;0.50;0.40;;;12.10;99.90;;;;;;5013309;28;20216;-81
2023/05/02 09:33:36;;;;;;;0.50;0.40;;;12.20;99.90;;;;;;5013634;28;20439;-81
2023/05/02 09:36:03;;;;;;;0.93;0.50;;;12.30;99.90;;;;;;5013703;28;20485;-80
2023/05/02 09:38:30;;;;;;;0.50;0.40;;;12.20;99.90;;;;;;5013840;28;20242;-80
2023/05/02 09:40:59;;;;;;;0.50;0.40;;;12.40;99.90;;;;;;5017183;28;20545;-80
2023/05/02 09:43:26;;;;;;;0.50;0.40;;;12.60;99.90;;;;;;5017098;28;20449;-81
2023/05/02 09:46:00;;;;;;;0.50;0.40;;;13.00;99.90;;;;;;5017261;28;20443;-81
2023/05/02 09:48:28;;;;;;;1.43;1.00;;;13.70;99.90;;;;;;5017471;28;20470;-79
2023/05/02 09:50:55;;;;;;;0.50;0.40;;;14.60;99.90;;;;;;5017045;28;20978;-81
2023/05/02 09:53:24;;;;;;;0.60;0.57;;;15.40;99.90;;;;;;5016880;28;20474;-82
2023/05/02 09:56:00;;;;;;;0.50;0.30;;;16.20;99.90;;;;;;5016944;28;20486;-80
2023/05/02 09:58:29;;;;;;;0.50;0.30;;;16.70;99.90;;;;;;5017237;28;20461;-80
2023/05/02 10:00:57;;;;;;;0.50;0.30;;;16.90;99.90;;;;;;5016750;28;20470;-80
2023/05/02 10:03:26;;;;;;;0.50;0.30;;;17.00;99.90;;;;;;5008779;28;20442;-80
2023/05/02 10:05:54;;;;;;;0.50;0.30;;;17.10;99.90;;;;;;5016910;28;20434;-80
2023/05/02 10:08:21;;;;;;;0.50;0.30;;;17.30;99.90;;;;;;5017004;28;20514;-79
2023/05/02 10:10:53;;;;;;;0.50;0.40;;;17.20;99.90;;;;;;5016972;28;20435;-80
2023/05/02 10:13:23;;;;;;;1.23;0.60;;;17.10;99.90;;;;;;5016295;28;20445;-80
2023/05/02 10:15:58;;;;;;;0.50;0.30;;;16.70;99.90;;;;;;5017194;28;20470;-79
2023/05/02 10:18:28;;;;;;;0.73;0.73;;;16.40;99.90;;;;;;5016597;28;20439;-80
2023/05/02 10:20:59;;;;;;;0.50;0.30;;;16.20;99.90;;;;;;5017537;28;20853;-79
2023/05/02 10:23:27;;;;;;;0.50;0.30;;;15.70;99.90;;;;;;5009012;28;20542;-81
2023/05/02 10:25:55;;;;;;;0.50;0.40;;;15.80;99.90;;;;;;5016582;28;20554;-80
2023/05/02 10:28:23;;;;;;;0.70;0.40;;;15.80;99.90;;;;;;5015519;28;20462;-79
2023/05/02 10:30:51;;;;;;;0.50;0.40;;;15.70;99.90;;;;;;5015240;28;20474;-82
2023/05/02 10:33:20;;;;;;;0.50;0.40;;;15.40;99.90;;;;;;5016968;28;20939;-81
2023/05/02 10:35:47;;;;;;;1.00;0.50;;;15.00;99.90;;;;;;5016581;28;20479;-78
2023/05/02 10:38:18;;;;;;;0.50;0.40;;;14.40;99.90;;;;;;5016692;28;20445;-81
2023/05/02 10:40:54;;;;;;;0.50;0.40;;;13.90;99.90;;;;;;5016242;28;20481;-81
2023/05/02 10:43:25;;;;;;;0.67;0.53;;;13.70;99.90;;;;;;5017723;28;20936;-80
2023/05/02 10:45:53;;;;;;;0.50;0.40;;;13.50;99.90;;;;;;5016444;28;20807;-81
2023/05/02 10:48:22;;;;;;;0.67;0.67;;;13.40;99.90;;;;;;5015500;28;20431;-80
2023/05/02 10:50:50;;;;;;;0.50;0.40;;;13.50;99.90;;;;;;5015831;28;20458;-81
2023/05/02 10:53:28;;;;;;;0.60;0.60;;;13.40;99.90;;;;;;5016415;28;20442;-81
2023/05/02 10:56:15;;;;;;;0.50;0.40;;;13.40;99.90;;;;;;5016308;28;20558;-82
2023/05/02 10:58:44;;;;;;;0.70;0.70;;;13.50;99.90;;;;;;5016637;28;20435;-81
2023/05/02 11:01:38;;;;;;;0.50;0.40;;;13.50;99.90;;;;;;5016583;28;20486;-81
2023/05/02 11:04:06;;;;;;;0.50;0.40;;;13.50;99.90;;;;;;5016347;28;20501;-81
2023/05/02 11:06:35;;;;;;;0.50;0.40;;;13.70;99.90;;;;;;5015918;28;20431;-80
2023/05/02 11:09:34;;;;;;;0.70;0.50;;;14.00;99.90;;;;;;5015616;28;20649;-79
2023/05/02 11:12:04;;;;;;;2.10;2.00;;;14.10;99.90;;;;;;4993918;28;21209;-78
2023/05/02 11:14:51;;;;;;;0.67;0.67;;;14.10;99.90;;;;;;5016555;28;21033;-81
2023/05/02 11:17:19;;;;;;;0.50;0.40;;;14.10;99.90;;;;;;5016987;28;20493;-80
2023/05/02 11:20:22;;;;;;;0.50;0.40;;;14.10;99.90;;;;;;5017397;28;20443;-79
2023/05/02 11:22:50;;;;;;;2.83;1.03;;;14.30;99.90;;;;;;5010481;28;20466;-80
2023/05/02 11:25:34;;;;;;;0.50;0.40;;;14.50;99.90;;;;;;5014943;28;20458;-80
2023/05/02 11:28:02;;;;;;;0.80;0.80;;;14.60;99.90;;;;;;5015221;28;20665;-81
2023/05/02 11:30:47;;;;;;;0.50;0.40;;;14.80;99.90;;;;;;5014665;28;20527;-79
2023/05/02 11:33:18;;;;;;;0.80;0.77;;;15.00;99.90;;;;;;5015115;28;20445;-81
2023/05/02 11:35:47;;;;;;;0.50;0.40;;;15.20;99.90;;;;;;5015159;28;20574;-79
2023/05/02 11:38:20;;;;;;;0.50;0.30;;;15.80;99.90;;;;;;5014971;28;20450;-80
2023/05/02 11:40:58;;;;;;;0.50;0.30;;;16.10;93.50;;;;;;5015167;28;20508;-81
2023/05/02 11:43:26;;;;;;;0.50;0.30;;;16.70;85.90;;;;;;5015286;28;20517;-81
2023/05/02 11:45:56;;;;;;;0.50;0.30;;;17.20;91.70;;;;;;5015311;28;20530;-80
2023/05/02 11:48:26;;;;;;;0.50;0.40;;;17.20;88.30;;;;;;5014847;28;20999;-80
2023/05/02 11:50:56;;;;;;;0.50;0.30;;;17.10;90.80;;;;;;5014729;28;20447;-80
2023/05/02 11:53:25;;;;;;;0.50;0.37;;;17.00;89.70;;;;;;5014744;28;20478;-80
2023/05/02 11:55:53;;;;;;;0.50;0.40;;;16.90;87.30;;;;;;5014481;28;20475;-80
2023/05/02 11:58:21;;;;;;;0.50;0.30;;;16.60;90.80;;;;;;5014254;28;20451;-80
2023/05/02 12:00:49;;;;;;;0.50;0.30;;;16.50;90.50;;;;;;5014648;28;20729;-80
2023/05/02 12:03:29;;;;;;;0.50;0.30;;;16.70;93.60;;;;;;5013748;28;20455;-79
2023/05/02 12:05:57;;;;;;;0.50;0.40;;;16.90;90.10;;;;;;5014369;28;20510;-79
2023/05/02 12:08:25;;;;;;;0.50;0.40;;;16.40;88.90;;;;;;5014510;28;20918;-80
2023/05/02 12:10:54;;;;;;;0.50;0.30;;;16.50;88.40;;;;;;5014204;28;20533;-80
2023/05/02 12:13:22;;;;;;;0.50;0.30;;;16.40;81.40;;;;;;5014372;28;20469;-79
2023/05/02 12:15:50;;;;;;;0.60;0.40;;;16.60;88.20;;;;;;5014911;28;20550;-79
2023/05/02 12:18:18;;;;;;;0.50;0.30;;;16.70;86.70;;;;;;5014801;28;21038;-80
2023/05/02 12:20:46;;;;;;;0.50;0.30;;;16.90;86.20;;;;;;5014156;28;20525;-78
2023/05/02 12:23:13;;;;;;;0.50;0.30;;;16.80;83.10;;;;;;5014521;28;20439;-81
2023/05/02 12:25:41;;;;;;;0.50;0.30;;;16.60;83.40;;;;;;5015120;28;20516;-80
2023/05/02 12:28:09;;;;;;;0.50;0.40;;;16.90;88.90;;;;;;5014155;28;20526;-80
2023/05/02 12:30:39;;;;;;;0.77;0.77;;;17.60;84.60;;;;;;5013797;28;20435;-79
2023/05/02 12:33:07;;;;;;;0.50;0.40;;;18.20;82.10;;;;;;5014099;28;20439;-80
2023/05/02 12:35:35;;;;;;;0.50;0.30;;;18.30;81.50;;;;;;5013939;28;20557;-81
2023/05/02 12:38:11;;;;;;;0.50;0.30;;;18.40;80.50;;;;;;5014179;28;20450;-81
2023/05/02 12:40:38;;;;;;;0.50;0.30;;;18.50;80.00;;;;;;5007195;28;20521;-79
2023/05/02 12:43:09;;;;;;;0.50;0.30;;;18.70;77.90;;;;;;5014207;28;20475;-81
2023/05/02 12:45:36;;;;;;;0.50;0.30;;;19.80;71.70;;;;;;5013989;28;20458;-81
2023/05/02 12:48:17;;;;;;;0.70;0.60;;;21.30;71.70;;;;;;5014081;28;20623;-82
2023/05/02 12:50:44;;;;;;;0.50;0.30;;;21.70;62.90;;;;;;5007296;28;20463;-81
2023/05/02 12:53:12;;;;;;;0.50;0.30;;;21.10;63.00;;;;;;5013630;28;20514;-82
2023/05/02 12:55:40;;;;;;;0.50;0.30;;;21.60;66.40;;;;;;5014053;28;20475;-82
2023/05/02 12:58:08;;;;;;;0.50;0.30;;;23.00;62.70;;;;;;5014311;28;20458;-82